Time;durP1;ratioP1;P1;durP2;ratioP2;P2;SDS_P1;SDS_P2;PMS_P1;PMS_P2;Temp;Humidity;BMP_temperature;BMP_pressure;BME280_temperature;BME280_humidity;BME280_pressure;Samples;Min_cycle;Max_cycle;Signal;HPM_P1;HPM_P2
2022/09/15 00:03:23;;;;;;;0.32;0.32;;;;;;;11.41;100.00;101059.47;10336647;28;20137;-79
2022/09/15 00:08:25;;;;;;;0.98;0.28;;;;;;;11.48;100.00;101073.38;10337392;28;20070;-79
2022/09/15 00:13:26;;;;;;;0.20;0.20;;;;;;;11.79;100.00;101086.19;10312166;28;20042;-79
2022/09/15 00:18:29;;;;;;;0.10;0.10;;;;;;;12.01;100.00;101091.03;10314946;28;20894;-79
2022/09/15 00:23:30;;;;;;;1.20;0.65;;;;;;;12.12;100.00;101101.63;10323252;28;20490;-79
2022/09/15 00:28:33;;;;;;;1.70;0.65;;;;;;;12.38;100.00;101103.88;10336210;28;20045;-79
2022/09/15 00:33:35;;;;;;;0.55;0.30;;;;;;;12.40;100.00;101098.78;10336294;28;20034;-80
2022/09/15 00:38:37;;;;;;;0.47;0.32;;;;;;;12.59;100.00;101113.81;10335839;28;20050;-79
2022/09/15 00:44:00;;;;;;;2.25;1.02;;;;;;;12.66;100.00;101126.03;10336558;28;20038;-80
2022/09/15 00:49:36;;;;;;;0.85;0.55;;;;;;;12.77;100.00;101139.19;10336169;28;20046;-79
2022/09/15 00:54:53;;;;;;;1.92;0.70;;;;;;;12.92;100.00;101172.22;10335427;28;20059;-79
2022/09/15 00:59:58;;;;;;;1.52;1.40;;;;;;;13.02;100.00;101187.09;10335442;28;20080;-79
2022/09/15 01:05:17;;;;;;;0.93;0.50;;;;;;;13.11;100.00;101181.22;10250916;28;20418;-79
2022/09/15 01:10:25;;;;;;;0.45;0.30;;;;;;;13.18;100.00;101195.16;10249680;28;20138;-79
2022/09/15 01:15:47;;;;;;;1.67;0.73;;;;;;;13.25;100.00;101199.63;10250121;28;20142;-79
2022/09/15 01:21:08;;;;;;;2.05;0.65;;;;;;;13.27;100.00;101208.28;10249578;28;20065;-79
2022/09/15 01:26:42;;;;;;;0.90;0.65;;;;;;;13.26;100.00;101196.19;10250237;29;20086;-78
2022/09/15 01:37:24;;;;;;;0.65;0.65;;;;;;;13.38;100.00;101189.50;10334652;28;20125;-79
2022/09/15 01:42:27;;;;;;;0.67;0.63;;;;;;;13.40;100.00;101187.84;10338374;28;20042;-79
2022/09/15 01:47:29;;;;;;;1.15;0.57;;;;;;;13.41;100.00;101172.34;10333620;28;20046;-79
2022/09/15 01:52:32;;;;;;;0.80;0.40;;;;;;;13.40;100.00;101162.84;10333609;28;20118;-79
2022/09/15 01:57:33;;;;;;;1.55;1.00;;;;;;;13.39;100.00;101147.28;10333098;28;20049;-79
2022/09/15 02:02:42;;;;;;;2.67;1.05;;;;;;;13.37;100.00;101146.34;10333424;28;20066;-79
2022/09/15 02:07:55;;;;;;;2.00;0.73;;;;;;;13.33;100.00;101130.78;10333443;28;20130;-79
2022/09/15 02:13:16;;;;;;;0.82;0.73;;;;;;;13.23;100.00;101121.09;10331724;28;20502;-80
2022/09/15 02:18:24;;;;;;;2.28;1.70;;;;;;;13.10;100.00;101113.94;10330068;28;20046;-80
2022/09/15 02:23:38;;;;;;;1.40;0.65;;;;;;;12.99;100.00;101099.09;10324587;28;20050;-80
2022/09/15 02:28:42;;;;;;;1.42;0.73;;;;;;;12.93;100.00;101088.63;10340169;28;20089;-79
2022/09/15 02:33:50;;;;;;;1.55;1.17;;;;;;;12.83;100.00;101087.59;10354341;28;20402;-79
2022/09/15 02:38:57;;;;;;;0.28;0.28;;;;;;;12.77;100.00;101090.06;10340250;28;20070;-79
2022/09/15 02:43:58;;;;;;;1.15;0.43;;;;;;;12.76;100.00;101100.38;10325185;28;20043;-80
2022/09/15 02:49:00;;;;;;;1.30;1.13;;;;;;;12.69;100.00;101097.66;10355126;28;20142;-78
2022/09/15 02:54:01;;;;;;;0.98;0.88;;;;;;;12.72;100.00;101098.53;10340156;28;20133;-79
2022/09/15 02:59:03;;;;;;;0.43;0.32;;;;;;;12.61;100.00;101096.63;10320981;28;20078;-79
2022/09/15 03:04:05;;;;;;;1.15;0.77;;;;;;;12.52;100.00;101097.28;10332182;28;20470;-79
2022/09/15 03:09:07;;;;;;;1.05;0.50;;;;;;;12.54;100.00;101111.13;10343829;28;20050;-79
2022/09/15 03:14:09;;;;;;;0.43;0.35;;;;;;;12.58;100.00;101122.41;10343648;28;20100;-80
2022/09/15 03:19:11;;;;;;;0.45;0.45;;;;;;;12.59;100.00;101134.50;10338804;28;20125;-79
2022/09/15 03:24:14;;;;;;;1.35;0.60;;;;;;;12.63;100.00;101131.13;10339382;28;20085;-79
2022/09/15 03:29:15;;;;;;;0.77;0.50;;;;;;;12.70;100.00;101122.66;10339113;28;20129;-79
2022/09/15 03:34:17;;;;;;;0.80;0.70;;;;;;;12.75;100.00;101108.97;10352837;28;20137;-79
2022/09/15 03:39:18;;;;;;;1.25;0.40;;;;;;;12.73;100.00;101100.28;10353837;28;20122;-79
2022/09/15 03:44:20;;;;;;;1.23;0.47;;;;;;;12.66;100.00;101095.00;10338724;28;20052;-79
2022/09/15 03:49:22;;;;;;;0.47;0.30;;;;;;;12.67;100.00;101085.53;10338654;28;20129;-79
2022/09/15 03:54:24;;;;;;;0.45;0.40;;;;;;;12.73;100.00;101084.78;10334261;28;20052;-78
2022/09/15 03:59:26;;;;;;;1.25;0.75;;;;;;;12.65;100.00;101077.75;10326360;28;20495;-79
2022/09/15 04:04:28;;;;;;;0.38;0.08;;;;;;;12.65;100.00;101077.75;10333865;28;20042;-79
2022/09/15 04:09:30;;;;;;;1.25;0.65;;;;;;;12.61;100.00;101081.13;10318146;28;20052;-78
2022/09/15 04:14:33;;;;;;;1.58;0.60;;;;;;;12.58;100.00;101075.88;10335841;28;20042;-79
2022/09/15 04:19:34;;;;;;;1.40;0.90;;;;;;;12.58;100.00;101081.06;10335803;28;20046;-79
2022/09/15 04:24:36;;;;;;;0.20;0.20;;;;;;;12.57;100.00;101087.06;10336898;28;20401;-79
2022/09/15 04:29:37;;;;;;;0.20;0.20;;;;;;;12.50;100.00;101095.53;10337532;28;20066;-79
2022/09/15 04:34:39;;;;;;;0.85;0.52;;;;;;;12.48;100.00;101094.59;10337503;28;20096;-79
2022/09/15 04:39:42;;;;;;;0.75;0.30;;;;;;;12.46;100.00;101098.91;10337411;28;20512;-79
2022/09/15 04:44:43;;;;;;;1.13;0.20;;;;;;;12.51;100.00;101099.84;10336383;28;20049;-79
2022/09/15 04:49:45;;;;;;;0.10;0.10;;;;;;;12.54;100.00;101097.34;10336340;28;20076;-79
2022/09/15 04:54:47;;;;;;;0.52;0.20;;;;;;;12.54;100.00;101095.63;10334803;28;20066;-79
2022/09/15 04:59:48;;;;;;;1.17;0.50;;;;;;;12.58;100.00;101086.22;10345799;28;20042;-78
2022/09/15 05:04:51;;;;;;;1.38;0.60;;;;;;;12.54;100.00;101090.47;10374224;28;20065;-78
2022/09/15 05:09:52;;;;;;;0.20;0.20;;;;;;;12.50;100.00;101077.44;10373068;28;20049;-78
2022/09/15 05:14:54;;;;;;;0.43;0.40;;;;;;;12.45;100.00;101079.06;10388386;28;20026;-79
2022/09/15 05:19:56;;;;;;;0.17;0.17;;;;;;;12.50;100.00;101087.78;10372761;28;20050;-79
2022/09/15 05:24:57;;;;;;;0.75;0.45;;;;;;;12.59;100.00;101097.41;10343086;28;20438;-79
2022/09/15 05:30:00;;;;;;;0.65;0.47;;;;;;;12.55;100.00;101096.47;10354898;28;20461;-79
2022/09/15 05:35:22;;;;;;;0.77;0.50;;;;;;;12.63;100.00;101094.94;10319096;28;20083;-79
2022/09/15 05:40:23;;;;;;;0.77;0.47;;;;;;;12.68;100.00;101093.34;10330221;28;20141;-79
2022/09/15 05:45:25;;;;;;;0.10;0.10;;;;;;;12.83;100.00;101094.47;10325246;28;20039;-79
2022/09/15 05:50:27;;;;;;;0.50;0.47;;;;;;;12.88;100.00;101092.84;10327627;28;20138;-80
2022/09/15 05:55:28;;;;;;;0.20;0.20;;;;;;;12.91;100.00;101095.50;10326060;28;20128;-79
2022/09/15 06:00:30;;;;;;;0.17;0.17;;;;;;;12.96;100.00;101091.28;10328230;28;20181;-79
2022/09/15 06:05:31;;;;;;;1.05;0.50;;;;;;;12.99;100.00;101086.16;10329270;28;20073;-79
2022/09/15 06:10:33;;;;;;;0.30;0.20;;;;;;;13.02;100.00;101072.44;10332682;28;20130;-79
2022/09/15 06:15:34;;;;;;;0.10;0.10;;;;;;;13.07;100.00;101077.69;10328557;28;20493;-79
2022/09/15 06:20:36;;;;;;;0.88;0.30;;;;;;;13.17;100.00;101074.41;10342832;28;20054;-79
2022/09/15 06:25:38;;;;;;;0.57;0.40;;;;;;;13.22;100.00;101074.50;10324326;28;20042;-80
2022/09/15 06:30:40;;;;;;;0.35;0.13;;;;;;;13.32;100.00;101074.69;10339551;28;20139;-79
2022/09/15 06:35:42;;;;;;;0.40;0.40;;;;;;;13.37;100.00;101059.25;10327047;28;20074;-80
2022/09/15 06:40:53;;;;;;;0.30;0.30;;;;;;;13.42;100.00;101061.94;10344228;28;20049;-80
2022/09/15 06:46:10;;;;;;;0.10;0.10;;;;;;;13.52;100.00;101063.81;10349384;28;20148;-80
2022/09/15 06:51:12;;;;;;;0.68;0.30;;;;;;;13.73;100.00;101049.50;10320169;28;20133;-80
2022/09/15 06:56:17;;;;;;;0.28;0.20;;;;;;;13.74;100.00;101053.78;10323130;28;20500;-80
2022/09/15 07:01:24;;;;;;;1.63;0.55;;;;;;;13.94;100.00;101046.31;10324398;28;20564;-80
2022/09/15 07:06:30;;;;;;;0.10;0.10;;;;;;;14.09;100.00;101045.69;10324875;28;20109;-79
2022/09/15 07:11:32;;;;;;;0.38;0.17;;;;;;;14.13;100.00;101042.28;10325162;28;20058;-79
2022/09/15 07:16:34;;;;;;;0.15;0.08;;;;;;;14.19;100.00;101029.41;10341046;28;20081;-79
2022/09/15 07:21:51;;;;;;;0.65;0.15;;;;;;;14.23;100.00;101007.88;10337214;28;20089;-78
2022/09/15 07:26:53;;;;;;;0.70;0.30;;;;;;;14.39;100.00;100995.09;10306883;28;20117;-79
2022/09/15 07:31:54;;;;;;;0.00;0.00;;;;;;;14.45;100.00;100979.63;10325246;28;20096;-80
2022/09/15 07:36:56;;;;;;;0.10;0.10;;;;;;;14.54;100.00;100950.31;10349375;28;20041;-79
2022/09/15 07:41:57;;;;;;;0.28;0.28;;;;;;;14.67;100.00;100935.78;10335716;28;20549;-79
2022/09/15 07:46:59;;;;;;;0.00;0.00;;;;;;;14.90;100.00;100920.44;10335227;28;20133;-79
2022/09/15 07:52:01;;;;;;;0.28;0.28;;;;;;;15.17;100.00;100903.34;10335753;28;20069;-79
2022/09/15 07:57:05;;;;;;;0.00;0.00;;;;;;;15.34;100.00;100895.66;10334410;28;20038;-78
2022/09/15 08:02:12;;;;;;;2.33;0.30;;;;;;;15.53;100.00;100896.63;10334164;28;20050;-79
2022/09/15 08:07:14;;;;;;;0.00;0.00;;;;;;;15.19;100.00;100884.31;10334403;28;20132;-79
2022/09/15 08:12:16;;;;;;;0.43;0.20;;;;;;;14.97;100.00;100921.34;10320020;28;20133;-79
2022/09/15 08:17:17;;;;;;;0.43;0.32;;;;;;;14.54;100.00;100947.72;10335450;28;20053;-78
2022/09/15 08:22:19;;;;;;;0.90;0.28;;;;;;;13.47;100.00;101016.28;10331052;28;20073;-79
2022/09/15 08:27:21;;;;;;;0.00;0.00;;;;;;;13.05;100.00;101045.75;10336030;28;20121;-79
2022/09/15 08:32:23;;;;;;;0.57;0.10;;;;;;;13.00;100.00;101067.22;10333157;28;20413;-79
2022/09/15 08:37:24;;;;;;;0.00;0.00;;;;;;;13.26;100.00;101051.28;10331764;28;20138;-79
2022/09/15 08:42:28;;;;;;;0.00;0.00;;;;;;;13.51;100.00;101041.41;10315383;28;20129;-79
2022/09/15 08:47:39;;;;;;;3.05;1.70;;;;;;;14.01;100.00;101036.94;10312858;28;20229;-79
2022/09/15 08:53:15;;;;;;;0.00;0.00;;;;;;;14.18;100.00;100993.09;10328653;28;20121;-80
2022/09/15 08:58:37;;;;;;;0.00;0.00;;;;;;;14.41;100.00;100975.22;10328870;28;20073;-79
2022/09/15 09:04:09;;;;;;;0.05;0.00;;;;;;;14.52;100.00;100947.72;10319709;28;20046;-79
2022/09/15 09:09:37;;;;;;;0.00;0.00;;;;;;;14.76;100.00;100925.50;10323415;28;20046;-79
2022/09/15 09:14:53;;;;;;;0.00;0.00;;;;;;;15.06;100.00;100926.63;10312596;28;20052;-79
2022/09/15 09:20:14;;;;;;;0.00;0.00;;;;;;;15.26;100.00;100923.28;10313335;28;20105;-79
2022/09/15 09:25:18;;;;;;;0.40;0.25;;;;;;;15.31;100.00;100887.84;10309014;28;20141;-79
2022/09/15 09:30:31;;;;;;;0.00;0.00;;;;;;;15.51;100.00;100895.75;10397518;28;20519;-79
2022/09/15 09:35:41;;;;;;;0.00;0.00;;;;;;;15.52;100.00;100888.00;10411608;28;20076;-79
2022/09/15 09:40:43;;;;;;;;;;;;;;;16.19;100.00;100885.66;10394795;28;20102;-79
2022/09/15 09:45:45;;;;;;;0.45;0.10;;;;;;;16.14;100.00;100875.25;10418184;28;19928;-79
2022/09/15 09:50:46;;;;;;;0.80;0.30;;;;;;;16.03;100.00;100858.78;10416679;28;20518;-79
2022/09/15 09:55:48;;;;;;;0.10;0.10;;;;;;;16.69;100.00;100849.31;10415062;28;20083;-79
2022/09/15 10:00:53;;;;;;;0.00;0.00;;;;;;;16.92;100.00;100847.59;10416638;28;20139;-79
2022/09/15 10:06:05;;;;;;;2.90;0.95;;;;;;;16.83;100.00;100825.88;10410431;28;20041;-80
2022/09/15 10:11:09;;;;;;;0.30;0.30;;;;;;;17.05;100.00;100825.00;10412254;28;20181;-79
2022/09/15 10:16:10;;;;;;;0.00;0.00;;;;;;;16.81;100.00;100818.94;10409412;28;20125;-80
2022/09/15 10:21:13;;;;;;;0.10;0.10;;;;;;;16.86;100.00;100825.91;10409537;28;20042;-81
2022/09/15 10:26:14;;;;;;;0.15;0.08;;;;;;;17.12;100.00;100829.34;10411318;28;20129;-80
2022/09/15 10:31:29;;;;;;;0.00;0.00;;;;;;;16.81;100.00;100811.13;10421087;28;20127;-81
2022/09/15 10:36:31;;;;;;;0.00;0.00;;;;;;;17.11;100.00;100811.97;10418706;28;20050;-79
2022/09/15 10:41:44;;;;;;;0.20;0.15;;;;;;;16.72;100.00;100802.47;10417012;28;20069;-80
2022/09/15 10:46:57;;;;;;;0.00;0.00;;;;;;;18.14;100.00;100785.44;10420028;28;20056;-80
2022/09/15 10:52:23;;;;;;;0.00;0.00;;;;;;;17.91;100.00;100786.44;10401710;28;20050;-80
2022/09/15 10:57:55;;;;;;;0.00;0.00;;;;;;;17.44;100.00;100786.72;10421430;28;20473;-80
2022/09/15 11:03:35;;;;;;;0.13;0.03;;;;;;;17.41;100.00;100789.31;10414862;28;20136;-79
2022/09/15 11:09:04;;;;;;;0.00;0.00;;;;;;;16.96;100.00;100788.59;10399496;28;20523;-79
2022/09/15 11:14:37;;;;;;;0.00;0.00;;;;;;;17.02;100.00;100796.38;10414250;28;20037;-79
2022/09/15 11:19:39;;;;;;;0.00;0.00;;;;;;;17.01;100.00;100804.19;10408286;28;20084;-78
2022/09/15 11:24:55;;;;;;;0.00;0.00;;;;;;;16.97;100.00;100808.53;10423292;28;20038;-80
2022/09/15 11:30:15;;;;;;;0.00;0.00;;;;;;;17.17;100.00;100805.00;10403935;28;20045;-79
2022/09/15 11:35:54;;;;;;;0.00;0.00;;;;;;;17.24;100.00;100812.81;10418559;28;20127;-79
2022/09/15 11:41:04;;;;;;;0.00;0.00;;;;;;;17.07;100.00;100812.88;10414435;28;20596;-79
2022/09/15 11:46:14;;;;;;;0.00;0.00;;;;;;;17.15;100.00;100801.56;10438818;28;20045;-79
2022/09/15 11:51:21;;;;;;;0.00;0.00;;;;;;;17.62;100.00;100800.50;10417738;28;20049;-80
2022/09/15 11:56:33;;;;;;;0.00;0.00;;;;;;;17.94;100.00;100794.25;10398463;28;20044;-80
2022/09/15 12:01:47;;;;;;;0.00;0.00;;;;;;;18.01;100.00;100790.75;10398881;28;20447;-76
2022/09/15 12:06:59;;;;;;;0.22;0.00;;;;;;;17.93;100.00;100784.69;10420369;28;20436;-76
2022/09/15 12:12:11;;;;;;;0.47;0.35;;;;;;;17.76;100.00;100780.44;10419721;28;20382;-76
2022/09/15 12:17:40;;;;;;;0.00;0.00;;;;;;;17.69;100.00;100775.28;10420067;28;20466;-76
2022/09/15 12:22:51;;;;;;;0.10;0.10;;;;;;;18.17;100.00;100769.78;10419949;28;20477;-75
2022/09/15 12:28:21;;;;;;;0.00;0.00;;;;;;;18.75;100.00;100770.16;10402091;28;20132;-76
2022/09/15 12:33:41;;;;;;;0.17;0.10;;;;;;;18.86;100.00;100771.75;10419411;28;20073;-75
2022/09/15 12:38:47;;;;;;;0.00;0.00;;;;;;;18.34;100.00;100773.16;10418225;28;20112;-75
2022/09/15 12:43:54;;;;;;;0.00;0.00;;;;;;;17.98;100.00;100769.94;10401378;28;20201;-76
2022/09/15 12:49:02;;;;;;;0.00;0.00;;;;;;;18.28;100.00;100772.31;10429105;28;20125;-76
2022/09/15 12:54:07;;;;;;;1.60;0.15;;;;;;;16.86;100.00;100799.88;10422224;28;20087;-76
2022/09/15 12:59:13;;;;;;;8.98;0.30;;;;;;;16.48;100.00;100804.22;10434028;28;20050;-76
2022/09/15 13:04:40;;;;;;;0.30;0.20;;;;;;;16.19;100.00;100818.09;10452881;28;20071;-76
2022/09/15 13:09:58;;;;;;;0.00;0.00;;;;;;;16.05;100.00;100823.25;10499321;28;20067;-77
2022/09/15 13:15:04;;;;;;;0.20;0.20;;;;;;;15.98;100.00;100826.69;10456499;28;20068;-77
2022/09/15 13:20:13;;;;;;;0.00;0.00;;;;;;;16.02;100.00;100820.66;10417120;28;20572;-77
2022/09/15 13:25:22;;;;;;;0.00;0.00;;;;;;;16.11;100.00;100815.50;10418716;28;20481;-76
2022/09/15 13:30:36;;;;;;;0.00;0.00;;;;;;;16.22;100.00;100822.41;10416314;28;20398;-77
2022/09/15 13:35:50;;;;;;;0.00;0.00;;;;;;;16.68;100.00;100809.44;10399677;28;20103;-77
2022/09/15 13:41:31;;;;;;;0.00;0.00;;;;;;;16.78;100.00;100798.16;10412954;28;20140;-77
2022/09/15 13:46:39;;;;;;;;;;;;;;;17.91;100.00;100778.63;10417002;28;20076;-77
2022/09/15 13:51:45;;;;;;;1.15;0.70;;;;;;;18.40;100.00;100782.63;10415272;28;20012;-76
2022/09/15 13:57:00;;;;;;;0.00;0.00;;;;;;;18.18;100.00;100776.75;10398483;28;20149;-77
2022/09/15 14:02:07;;;;;;;0.00;0.00;;;;;;;17.40;100.00;100777.16;10416115;28;20172;-76
2022/09/15 14:07:22;;;;;;;0.00;0.00;;;;;;;17.25;100.00;100790.25;10416035;28;20088;-77
2022/09/15 14:12:23;;;;;;;0.00;0.00;;;;;;;17.24;100.00;100778.97;10398152;28;20079;-77
2022/09/15 14:17:33;;;;;;;0.00;0.00;;;;;;;17.10;100.00;100779.00;10415331;28;20061;-76
2022/09/15 14:22:34;;;;;;;0.00;0.00;;;;;;;17.19;100.00;100793.75;10397944;28;20120;-77
2022/09/15 14:27:43;;;;;;;0.00;0.00;;;;;;;17.03;100.00;100805.94;10414022;28;20046;-76
2022/09/15 14:32:48;;;;;;;0.32;0.15;;;;;;;16.89;100.00;100807.66;10397936;28;20054;-76
2022/09/15 14:37:57;;;;;;;0.00;0.00;;;;;;;16.87;100.00;100801.59;10413782;28;20056;-76
2022/09/15 14:42:59;;;;;;;;;;;;;;;16.80;100.00;100796.41;10397702;28;20602;-77
2022/09/15 14:48:05;;;;;;;0.00;0.00;;;;;;;17.10;100.00;100794.63;10413738;28;20339;-77
2022/09/15 14:53:12;;;;;;;0.10;0.00;;;;;;;17.17;100.00;100799.81;10413824;28;20514;-76
2022/09/15 14:58:21;;;;;;;0.38;0.15;;;;;;;17.35;100.00;100789.34;10397281;28;20141;-75
2022/09/15 15:03:28;;;;;;;0.00;0.00;;;;;;;17.29;100.00;100799.78;10415800;28;20061;-77
2022/09/15 15:08:41;;;;;;;0.10;0.00;;;;;;;17.09;100.00;100800.69;10396989;28;20564;-76
2022/09/15 15:13:47;;;;;;;0.00;0.00;;;;;;;17.23;100.00;100790.25;10413468;28;20053;-76
2022/09/15 15:18:50;;;;;;;0.00;0.00;;;;;;;17.15;100.00;100792.00;10414626;28;20048;-77
2022/09/15 15:23:52;;;;;;;0.00;0.00;;;;;;;17.20;100.00;100786.78;10414600;28;20498;-76
2022/09/15 15:28:54;;;;;;;0.00;0.00;;;;;;;16.94;100.00;100777.34;10415635;28;20041;-77
2022/09/15 15:34:04;;;;;;;0.00;0.00;;;;;;;16.77;100.00;100786.00;10420692;28;20048;-77
2022/09/15 15:39:06;;;;;;;2.60;0.47;;;;;;;16.71;100.00;100790.34;10421107;28;20052;-76
2022/09/15 15:44:14;;;;;;;0.17;0.17;;;;;;;16.47;100.00;100797.28;10434748;28;20049;-76
2022/09/15 15:49:17;;;;;;;0.00;0.00;;;;;;;16.39;100.00;100789.50;10458827;28;20038;-76
2022/09/15 15:54:18;;;;;;;0.35;0.35;;;;;;;16.52;100.00;100797.28;10403998;28;20049;-76
2022/09/15 15:59:20;;;;;;;0.50;0.32;;;;;;;16.69;100.00;100798.16;10421652;28;20053;-76
2022/09/15 16:04:21;;;;;;;0.25;0.08;;;;;;;16.61;100.00;100816.34;10421127;28;20136;-75
2022/09/15 16:09:23;;;;;;;0.00;0.00;;;;;;;16.63;100.00;100813.78;10423298;28;20045;-75
2022/09/15 16:21:35;;;;;;;0.45;0.30;;;;;;;16.48;100.00;100807.72;10392681;28;20057;-76
2022/09/15 16:26:38;;;;;;;0.00;0.00;;;;;;;16.49;100.00;100811.16;10402751;28;20034;-76
2022/09/15 16:31:41;;;;;;;0.30;0.22;;;;;;;16.84;100.00;100806.81;10401788;28;20100;-76
2022/09/15 16:36:45;;;;;;;0.00;0.00;;;;;;;16.73;100.00;100815.47;10428545;28;20397;-77
2022/09/15 16:41:46;;;;;;;0.00;0.00;;;;;;;16.17;100.00;100810.28;10405140;28;20069;-77
2022/09/15 16:46:48;;;;;;;0.00;0.00;;;;;;;15.80;100.00;100828.38;10417866;28;20049;-76
2022/09/15 16:51:49;;;;;;;0.00;0.00;;;;;;;15.68;100.00;100851.69;10401040;28;20448;-77
2022/09/15 16:56:51;;;;;;;0.00;0.00;;;;;;;15.52;100.00;100862.03;10418525;28;20065;-76
2022/09/15 17:01:52;;;;;;;0.10;0.00;;;;;;;15.51;100.00;100857.69;10418892;28;20507;-76
2022/09/15 17:06:55;;;;;;;0.00;0.00;;;;;;;15.32;100.00;100868.81;10402146;28;20045;-76
2022/09/15 17:12:22;;;;;;;0.55;0.20;;;;;;;15.18;100.00;100863.56;10444206;28;20136;-76
2022/09/15 17:17:24;;;;;;;0.43;0.13;;;;;;;15.22;100.00;100848.03;10457683;28;20120;-75
2022/09/15 17:22:28;;;;;;;0.00;0.00;;;;;;;15.19;100.00;100855.78;10423384;28;20057;-76
2022/09/15 17:27:29;;;;;;;6.72;0.52;;;;;;;15.16;100.00;100855.75;10400325;28;20129;-75
2022/09/15 17:32:31;;;;;;;0.10;0.00;;;;;;;15.11;100.00;100857.47;10417444;28;20080;-76
2022/09/15 17:37:35;;;;;;;0.00;0.00;;;;;;;14.93;100.00;100880.69;10417322;28;20038;-76
2022/09/15 17:42:36;;;;;;;0.00;0.00;;;;;;;14.32;100.00;100900.00;10415738;28;20053;-76
2022/09/15 17:47:38;;;;;;;0.00;0.00;;;;;;;13.73;100.00;100920.88;10399786;28;20480;-75
2022/09/15 17:52:40;;;;;;;0.10;0.00;;;;;;;13.45;100.00;100932.56;10416014;28;20069;-75
2022/09/15 17:57:42;;;;;;;0.75;0.20;;;;;;;13.33;100.00;100948.75;10412186;28;20453;-75
2022/09/15 18:02:52;;;;;;;0.40;0.20;;;;;;;13.15;100.00;100954.50;10430034;28;20045;-76
2022/09/15 18:07:58;;;;;;;0.00;0.00;;;;;;;12.97;100.00;100976.66;10416450;28;20045;-76
2022/09/15 18:13:02;;;;;;;1.67;0.10;;;;;;;12.90;100.00;100994.59;10434775;28;20485;-76
2022/09/15 18:18:07;;;;;;;0.00;0.00;;;;;;;12.85;100.00;101007.44;10408446;28;20061;-76
2022/09/15 18:23:13;;;;;;;0.00;0.00;;;;;;;12.75;100.00;101010.72;10398899;28;20140;-76
2022/09/15 18:28:18;;;;;;;0.00;0.00;;;;;;;12.69;100.00;101033.03;10435424;28;20037;-76
2022/09/15 18:33:24;;;;;;;0.25;0.13;;;;;;;12.71;100.00;101040.81;10446523;28;20025;-76
2022/09/15 18:38:26;;;;;;;0.00;0.00;;;;;;;12.78;100.00;101053.03;10423345;28;20056;-76
2022/09/15 18:43:27;;;;;;;0.00;0.00;;;;;;;12.72;100.00;101052.00;10398343;28;20503;-75
2022/09/15 18:48:29;;;;;;;0.38;0.10;;;;;;;12.69;100.00;101058.00;10397732;28;20461;-76
2022/09/15 18:53:33;;;;;;;0.00;0.00;;;;;;;12.69;100.00;101064.06;10413976;28;20050;-76
2022/09/15 18:58:36;;;;;;;0.00;0.00;;;;;;;12.63;100.00;101074.25;10397328;28;20064;-76
2022/09/15 19:03:38;;;;;;;0.00;0.00;;;;;;;12.60;100.00;101079.38;10399451;28;20073;-76
2022/09/15 19:08:44;;;;;;;0.00;0.00;;;;;;;12.49;100.00;101078.28;10421716;28;20489;-75
2022/09/15 19:13:46;;;;;;;0.30;0.22;;;;;;;12.34;100.00;101082.28;10436919;28;20516;-76
2022/09/15 19:18:48;;;;;;;0.00;0.00;;;;;;;12.34;100.00;101077.09;10422644;28;20504;-76
2022/09/15 19:23:50;;;;;;;0.00;0.00;;;;;;;12.23;100.00;101073.44;10404474;28;20050;-76
2022/09/15 19:28:52;;;;;;;0.08;0.08;;;;;;;12.17;100.00;101074.16;10404227;28;20050;-76
2022/09/15 19:33:53;;;;;;;0.00;0.00;;;;;;;12.08;100.00;101084.28;10422034;28;20069;-75
2022/09/15 19:38:56;;;;;;;0.00;0.00;;;;;;;12.17;100.00;101088.81;10421552;28;20120;-76
2022/09/15 19:43:59;;;;;;;0.00;0.00;;;;;;;12.32;100.00;101093.41;10403714;28;20076;-76
2022/09/15 19:49:01;;;;;;;0.00;0.00;;;;;;;12.41;100.00;101095.31;10421629;28;20112;-76
2022/09/15 19:54:04;;;;;;;0.00;0.00;;;;;;;12.26;100.00;101098.47;10459356;28;20553;-76
2022/09/15 19:59:06;;;;;;;0.22;0.20;;;;;;;12.18;100.00;101093.09;10444407;28;20502;-75
2022/09/15 20:04:09;;;;;;;0.20;0.10;;;;;;;12.12;100.00;101111.94;10460729;28;20063;-75
2022/09/15 20:09:28;;;;;;;0.00;0.00;;;;;;;12.17;100.00;101099.13;10460831;28;20152;-76
2022/09/15 20:14:30;;;;;;;0.13;0.03;;;;;;;12.24;100.00;101101.03;10461289;28;20056;-76
2022/09/15 20:19:32;;;;;;;0.00;0.00;;;;;;;12.24;100.00;101100.13;10427561;28;20049;-76
2022/09/15 20:24:33;;;;;;;0.00;0.00;;;;;;;12.26;100.00;101088.97;10420240;28;20045;-75
2022/09/15 20:29:35;;;;;;;0.00;0.00;;;;;;;12.24;100.00;101080.34;10419751;28;20038;-76
2022/09/15 20:34:37;;;;;;;0.00;0.00;;;;;;;12.20;100.00;101088.84;10401779;28;20049;-76
2022/09/15 20:39:39;;;;;;;0.08;0.00;;;;;;;12.09;100.00;101080.00;10417907;28;20053;-75
2022/09/15 20:44:41;;;;;;;0.10;0.10;;;;;;;11.94;100.00;101076.22;10422089;28;20423;-76
2022/09/15 20:49:42;;;;;;;0.00;0.00;;;;;;;11.87;100.00;101088.09;10428378;28;20132;-75
2022/09/15 20:54:43;;;;;;;0.08;0.00;;;;;;;11.90;100.00;101092.44;10417837;28;20148;-75
2022/09/15 20:59:45;;;;;;;0.00;0.00;;;;;;;11.82;100.00;101093.97;10448437;28;20037;-76
2022/09/15 21:04:46;;;;;;;0.00;0.00;;;;;;;11.78;100.00;101100.78;10459756;28;20526;-75
2022/09/15 21:09:48;;;;;;;0.00;0.00;;;;;;;11.79;100.00;101105.09;10459651;28;20091;-75
2022/09/15 21:14:50;;;;;;;0.00;0.00;;;;;;;11.70;100.00;101103.19;10459393;28;20052;-76
2022/09/15 21:19:52;;;;;;;0.65;0.05;;;;;;;11.59;100.00;101114.94;10458057;28;20048;-76
2022/09/15 21:24:53;;;;;;;0.00;0.00;;;;;;;11.62;100.00;101109.84;10459315;28;20131;-76
2022/09/15 21:29:55;;;;;;;0.00;0.00;;;;;;;11.77;100.00;101100.75;10457636;28;20072;-75
2022/09/15 21:35:04;;;;;;;0.35;0.10;;;;;;;11.83;100.00;101104.34;10458712;28;20048;-76
2022/09/15 21:40:06;;;;;;;0.00;0.00;;;;;;;11.95;100.00;101096.00;10458866;28;20361;-76
2022/09/15 21:45:08;;;;;;;0.00;0.00;;;;;;;11.99;100.00;101097.00;10458433;28;20137;-76
2022/09/15 21:50:10;;;;;;;0.00;0.00;;;;;;;11.96;100.00;101091.72;10457381;28;20055;-75
2022/09/15 21:55:11;;;;;;;0.25;0.17;;;;;;;11.97;100.00;101091.78;10440764;28;20051;-76
2022/09/15 22:00:18;;;;;;;0.30;0.30;;;;;;;11.99;100.00;101092.69;10458412;28;20485;-76
2022/09/15 22:05:22;;;;;;;0.00;0.00;;;;;;;11.94;100.00;101096.88;10458117;28;20048;-75
2022/09/15 22:10:25;;;;;;;0.00;0.00;;;;;;;12.00;100.00;101091.88;10456589;28;20083;-76
2022/09/15 22:15:28;;;;;;;0.32;0.10;;;;;;;12.03;100.00;101099.66;10457592;28;20128;-75
2022/09/15 22:20:29;;;;;;;0.00;0.00;;;;;;;12.10;100.00;101099.84;10457573;28;20457;-76
2022/09/15 22:25:33;;;;;;;0.00;0.00;;;;;;;12.08;100.00;101106.66;10456068;28;20049;-76
2022/09/15 22:30:35;;;;;;;0.00;0.00;;;;;;;12.10;100.00;101111.03;10456715;28;20373;-76
2022/09/15 22:35:45;;;;;;;0.10;0.10;;;;;;;12.05;100.00;101103.16;10455884;28;20467;-75
2022/09/15 22:40:46;;;;;;;0.70;0.10;;;;;;;11.89;100.00;101099.34;10461185;28;20073;-76
2022/09/15 22:45:48;;;;;;;0.00;0.00;;;;;;;11.78;100.00;101115.41;10465051;28;20492;-76
2022/09/15 22:50:50;;;;;;;3.10;0.70;;;;;;;11.66;100.00;101122.00;10447275;28;20083;-76
2022/09/15 22:56:03;;;;;;;0.00;0.00;;;;;;;11.45;100.00;101122.34;10447156;28;20460;-75
2022/09/15 23:01:08;;;;;;;0.00;0.00;;;;;;;11.40;100.00;101135.13;10447076;28;20102;-76
2022/09/15 23:06:10;;;;;;;0.00;0.00;;;;;;;11.20;100.00;101147.47;10439158;28;20038;-75
2022/09/15 23:11:12;;;;;;;0.00;0.00;;;;;;;11.08;100.00;101163.47;10421777;28;20053;-76
2022/09/15 23:16:14;;;;;;;0.00;0.00;;;;;;;11.06;100.00;101172.00;10423486;28;20033;-75
2022/09/15 23:21:16;;;;;;;0.00;0.00;;;;;;;10.96;100.00;101168.28;10405533;28;20044;-75
2022/09/15 23:26:19;;;;;;;0.00;0.00;;;;;;;10.93;100.00;101171.66;10422572;28;20386;-75